.
WxDataArchive / Data Records for 2010-03-18
2010-03-17 March 2010 2010-03-19

Data Records for Thursday, 18 March 2010

Time	Temp	Chill	HIndex	Humid	Dewpt	 Wind 	HiWind	WindDir	Rain 	Barom 
-----	----	-----	------	-----	-----	------	------	-------	-----	----- 
00:00	39.8	39.8	39.8	59	26.7	0	0	---	0.00	30.032 
00:05	39.6	39.6	39.6	59	26.5	0	0	---	0.00	30.032 
00:10	39.3	39.3	39.3	60	26.6	0	0	---	0.00	30.032 
00:15	39.1	39.1	39.1	61	26.8	0	0	---	0.00	30.025 
00:20	38.9	38.9	38.9	62	27.0	0	0	---	0.00	30.025 
00:25	38.6	38.6	38.6	62	26.7	0	0	---	0.00	30.025 
00:30	38.6	38.6	38.6	63	27.1	0	0	---	0.00	30.024 
00:35	38.5	38.5	38.5	64	27.4	0	0	---	0.00	30.024 
00:40	38.2	38.2	38.2	64	27.1	0	0	---	0.00	30.024 
00:45	38.0	38.0	38.0	65	27.3	0	0	---	0.00	30.024 
00:50	37.8	37.8	37.8	66	27.5	0	0	---	0.00	30.024 
00:55	37.5	37.5	37.5	67	27.6	0	0	---	0.00	30.024 
01:00	37.3	37.3	37.3	68	27.7	0	0	---	0.00	30.021 
01:05	37.2	37.2	37.2	69	28.0	0	0	---	0.00	30.021 
01:10	37.0	37.0	37.0	69	27.8	0	0	---	0.00	30.021 
01:15	36.9	36.9	36.9	69	27.7	0	0	---	0.00	30.012 
01:20	36.8	36.8	36.8	69	27.6	0	0	---	0.00	30.012 
01:25	36.6	36.6	36.6	70	27.8	0	0	---	0.00	30.012 
01:30	36.3	36.3	36.3	71	27.8	0	0	---	0.00	30.009 
01:35	36.3	36.3	36.3	72	28.2	0	0	---	0.00	30.009 
01:40	36.2	36.2	36.2	72	28.1	0	0	---	0.00	30.009 
01:45	36.2	36.2	36.2	72	28.1	0	0	---	0.00	30.008 
01:50	36.0	36.0	36.0	72	27.9	0	0	---	0.00	30.008 
01:55	36.0	36.0	36.0	72	27.9	0	0	---	0.00	30.008 
02:00	35.9	35.9	35.9	72	27.8	0	0	---	0.00	30.003 
02:05	35.8	35.8	35.8	72	27.7	0	0	---	0.00	30.003 
02:10	35.6	35.6	35.6	72	27.5	0	0	---	0.00	30.003 
02:15	35.6	35.6	35.6	72	27.5	0	0	---	0.00	30.002 
02:20	35.6	35.6	35.6	72	27.5	0	0	---	0.00	30.002 
02:25	35.6	35.6	35.6	72	27.5	0	0	---	0.00	30.002 
02:30	35.5	35.5	35.5	71	27.0	0	0	---	0.00	30.003 
02:35	35.5	35.5	35.5	72	27.4	0	0	---	0.00	30.003 
02:40	35.3	35.3	35.3	72	27.2	0	0	---	0.00	30.003 
02:45	35.0	35.0	35.0	72	26.9	0	0	---	0.00	30.000 
02:50	34.9	34.9	34.9	72	26.8	0	0	---	0.00	30.000 
02:55	34.6	34.6	34.6	73	26.9	0	0	---	0.00	30.000 
03:00	34.3	34.3	34.3	73	26.6	0	0	---	0.00	29.999 
03:05	34.1	34.1	34.1	74	26.7	0	0	---	0.00	29.999 
03:10	33.8	33.8	33.8	75	26.7	0	0	---	0.00	29.999 
03:15	33.7	33.7	33.7	75	26.6	0	0	---	0.00	29.996 
03:20	33.4	33.4	33.4	76	26.7	0	0	---	0.00	29.996 
03:25	33.2	33.2	33.2	77	26.8	0	0	---	0.00	29.996 
03:30	33.1	33.1	33.1	77	26.7	0	0	---	0.00	29.997 
03:35	32.9	32.9	32.9	77	26.5	0	0	---	0.00	29.997 
03:40	32.8	32.8	32.8	77	26.4	0	0	---	0.00	29.997 
03:45	32.8	32.8	32.8	78	26.7	0	0	---	0.00	29.995 
03:50	32.8	32.8	32.8	77	26.4	0	0	---	0.00	29.995 
03:55	32.8	32.8	32.8	77	26.4	0	0	---	0.00	29.995 
04:00	32.8	32.8	32.8	77	26.4	0	0	---	0.00	29.993 
04:05	32.7	32.7	32.7	77	26.3	0	0	---	0.00	29.993 
04:10	32.7	32.7	32.7	77	26.3	0	0	---	0.00	29.993 
04:15	32.5	32.5	32.5	77	26.1	0	0	---	0.00	29.984 
04:20	32.4	32.4	32.4	77	26.0	0	0	---	0.00	29.984 
04:25	32.4	32.4	32.4	77	26.0	0	0	---	0.00	29.984 
04:30	32.2	32.2	32.2	77	25.8	0	0	---	0.00	29.982 
04:35	32.1	32.1	32.1	78	26.0	0	0	---	0.00	29.982 
04:40	31.9	31.9	31.9	78	25.8	0	0	---	0.00	29.982 
04:45	31.9	31.9	31.9	78	25.8	0	0	---	0.00	29.981 
04:50	31.8	31.8	31.8	79	26.0	0	0	---	0.00	29.981 
04:55	31.6	31.6	31.6	79	25.8	0	0	---	0.00	29.981 
05:00	31.5	31.5	31.5	79	25.8	0	0	---	0.00	29.983 
05:05	31.6	31.6	31.6	78	25.5	0	0	---	0.00	29.983 
05:10	31.9	31.9	31.9	78	25.8	0	0	---	0.00	29.983 
05:15	32.5	32.5	32.5	77	26.1	0	0	---	0.00	29.989 
05:20	32.9	32.9	32.9	75	25.9	0	0	---	0.00	29.989 
05:25	33.2	33.2	33.2	73	25.5	0	0	---	0.00	29.989 
05:30	33.5	33.5	33.5	72	25.5	0	0	---	0.00	29.989 
05:35	33.8	33.8	33.8	71	25.4	0	0	---	0.00	29.989 
05:40	34.0	34.0	34.0	70	25.3	0	0	---	0.00	29.989 
05:45	34.0	34.0	34.0	69	24.9	0	0	---	0.00	29.987 
05:50	34.0	34.0	34.0	69	24.9	0	0	---	0.00	29.987 
05:55	33.7	33.7	33.7	69	24.6	0	0	---	0.00	29.987 
06:00	33.5	33.5	33.5	69	24.4	0	0	---	0.00	29.989 
06:05	33.4	33.4	33.4	69	24.3	0	0	---	0.00	29.989 
06:10	33.4	33.4	33.4	68	24.0	0	0	---	0.00	29.989 
06:15	33.5	33.5	33.5	68	24.1	0	0	---	0.00	29.994 
06:20	33.4	33.4	33.4	69	24.3	0	0	---	0.00	29.994 
06:25	33.5	33.5	33.5	68	24.1	0	0	---	0.00	29.994 
06:30	33.8	33.8	33.8	68	24.4	0	0	---	0.00	29.995 
06:35	34.3	34.3	34.3	67	24.5	0	0	---	0.00	29.995 
06:40	34.6	34.6	34.6	66	24.4	0	0	---	0.00	29.995 
06:45	34.6	34.6	34.6	65	24.1	0	0	---	0.00	29.996 
06:50	34.4	34.4	34.4	65	23.9	0	0	---	0.00	29.996 
06:55	34.3	34.3	34.3	65	23.8	0	0	---	0.00	29.996 
07:00	34.1	34.1	34.1	66	23.9	0	0	---	0.00	29.995 
07:05	34.0	34.0	34.0	66	23.9	0	0	---	0.00	29.995 
07:10	33.8	33.8	33.8	66	23.7	0	0	---	0.00	29.995 
07:15	33.8	33.8	33.8	66	23.7	0	0	---	0.00	30.001 
07:20	33.7	33.7	33.7	67	23.9	0	0	---	0.00	30.001 
07:25	33.7	33.7	33.7	66	23.6	0	0	---	0.00	30.001 
07:30	33.5	33.5	33.5	67	23.7	0	0	---	0.00	30.002 
07:35	33.4	33.4	33.4	67	23.6	0	0	---	0.00	30.002 
07:40	33.1	33.1	33.1	67	23.4	0	0	---	0.00	30.002 
07:45	32.8	32.8	32.8	68	23.4	0	0	---	0.00	30.002 
07:50	32.5	32.5	32.5	68	23.1	0	0	---	0.00	30.002 
07:55	32.2	32.2	32.2	68	22.8	0	0	---	0.00	30.002 
08:00	31.9	31.9	31.9	69	22.9	0	0	---	0.00	30.004 
08:05	31.6	31.6	31.6	70	23.0	0	0	---	0.00	30.004 
08:10	31.3	31.3	31.3	71	23.0	0	0	---	0.00	30.004 
08:15	31.2	31.2	31.2	71	22.9	0	0	---	0.00	30.011 
08:20	31.2	31.2	31.2	72	23.2	0	0	---	0.00	30.011 
08:25	31.3	31.3	31.3	73	23.7	0	0	---	0.00	30.011 
08:30	31.8	31.8	31.8	74	24.5	0	0	---	0.00	30.009 
08:35	32.5	32.5	32.5	75	25.5	0	0	---	0.00	30.009 
08:40	33.5	33.5	33.5	72	25.5	0	0	---	0.00	30.009 
08:45	34.6	34.6	34.6	71	26.2	0	0	---	0.00	30.008 
08:50	35.6	35.6	35.6	67	25.7	0	0	---	0.00	30.008 
08:55	36.6	36.6	36.6	65	26.0	0	0	---	0.00	30.008 
09:00	37.3	37.3	37.3	61	25.1	0	1	90	0.00	30.006 
09:05	38.3	38.3	38.3	58	24.8	0	1	90	0.00	30.006 
09:10	39.3	39.3	39.3	55	24.5	0	2	90	0.00	30.006 
09:15	40.2	40.2	40.2	54	24.9	0	2	292	0.00	30.005 
09:20	40.9	40.9	40.9	54	25.6	0	1	292	0.00	30.005 
09:25	41.8	41.8	41.8	54	26.4	0	2	292	0.00	30.005 
09:30	42.5	42.5	42.5	53	26.6	0	2	248	0.00	30.002 
09:35	43.2	43.2	43.2	52	26.8	0	1	248	0.00	30.002 
09:40	43.8	43.8	43.8	53	27.8	1	4	248	0.00	30.002 
09:45	44.2	44.2	44.2	52	27.7	1	2	248	0.00	29.995 
09:50	44.6	44.6	44.6	52	28.1	1	3	248	0.00	29.995 
09:55	45.2	45.2	45.2	51	28.2	1	3	248	0.00	29.995 
10:00	45.8	45.8	45.8	51	28.7	1	2	248	0.00	29.987 
10:05	46.5	46.5	46.5	53	30.3	1	3	248	0.00	29.987 
10:10	47.1	47.1	47.1	51	29.9	1	4	248	0.00	29.987 
10:15	47.7	47.7	47.7	50	30.0	1	4	248	0.00	29.986 
10:20	48.2	48.2	48.2	50	30.4	1	3	270	0.00	29.986 
10:25	48.9	48.9	48.9	51	31.6	0	2	270	0.00	29.986 
10:30	49.6	49.6	49.6	50	31.7	1	3	270	0.00	29.983 
10:35	50.4	50.4	50.4	50	32.5	1	2	248	0.00	29.983 
10:40	51.3	51.3	51.3	50	33.3	1	2	248	0.00	29.983 
10:45	51.9	51.9	51.9	47	32.3	1	2	248	0.00	29.980 
10:50	52.5	52.5	52.5	48	33.4	0	1	315	0.00	29.980 
10:55	52.9	52.9	52.9	46	32.7	1	4	270	0.00	29.980 
11:00	53.2	53.2	53.2	47	33.5	1	5	248	0.00	29.979 
11:05	53.3	53.3	53.3	46	33.1	2	5	248	0.00	29.979 
11:10	53.8	53.8	53.8	46	33.5	1	3	248	0.00	29.979 
11:15	54.1	54.1	54.1	46	33.8	1	5	248	0.00	29.982 
11:20	54.5	54.5	54.5	46	34.1	1	2	248	0.00	29.982 
11:25	54.8	54.8	54.8	45	33.9	1	2	248	0.00	29.982 
11:30	55.0	55.0	55.0	45	34.1	1	3	248	0.00	29.980 
11:35	55.4	55.4	55.4	47	35.5	1	2	270	0.00	29.980 
11:40	55.6	55.6	55.6	43	33.5	2	4	248	0.00	29.980 
11:45	55.4	55.4	55.4	43	33.3	2	4	248	0.00	29.979 
11:50	55.9	55.9	55.9	45	34.9	1	2	248	0.00	29.979 
11:55	56.3	56.3	56.3	43	34.1	2	4	248	0.00	29.979 
12:00	56.7	56.7	56.7	44	35.0	2	4	248	0.00	29.974 
12:05	57.2	57.2	57.2	41	33.7	1	3	270	0.00	29.974 
12:10	57.8	57.8	57.8	43	35.5	1	3	248	0.00	29.974 
12:15	58.6	58.6	58.6	42	35.6	1	4	248	0.00	29.970 
12:20	58.7	58.7	58.7	42	35.7	1	4	270	0.00	29.970 
12:25	59.0	59.0	59.0	41	35.3	1	3	315	0.00	29.970 
12:30	59.6	59.6	59.6	38	34.0	2	4	248	0.00	29.964 
12:35	60.1	60.1	60.1	38	34.4	1	5	315	0.00	29.964 
12:40	60.2	60.2	60.2	39	35.2	2	4	248	0.00	29.964 
12:45	60.4	60.4	60.4	38	34.7	1	3	225	0.00	29.964 
12:50	60.9	60.9	60.9	38	35.1	1	4	225	0.00	29.964 
12:55	61.0	61.0	61.0	36	33.9	2	6	248	0.00	29.964 
13:00	61.5	61.5	61.5	37	35.0	1	3	248	0.00	29.957 
13:05	61.6	61.6	61.6	38	35.7	2	4	248	0.00	29.957 
13:10	61.8	61.8	61.8	36	34.6	2	4	248	0.00	29.957 
13:15	62.0	62.0	62.0	35	34.0	1	3	248	0.00	29.951 
13:20	62.3	62.3	62.3	38	36.4	1	4	248	0.00	29.951 
13:25	62.6	62.6	62.6	35	34.6	2	5	248	0.00	29.951 
13:30	62.7	62.7	62.7	33	33.2	1	5	248	0.00	29.947 
13:35	63.2	63.2	63.2	32	32.9	2	7	338	0.00	29.947 
13:40	63.4	63.4	63.4	29	30.6	3	6	270	0.00	29.947 
13:45	63.2	63.2	63.2	29	30.4	2	5	338	0.00	29.946 
13:50	63.4	63.4	63.4	30	31.4	3	6	315	0.00	29.946 
13:55	63.2	63.2	63.2	30	31.3	1	4	292	0.00	29.946 
14:00	63.4	63.4	63.4	30	31.4	3	5	338	0.00	29.945 
14:05	63.7	63.7	63.7	29	30.8	2	5	270	0.00	29.945 
14:10	63.9	63.9	63.9	31	32.7	2	4	270	0.00	29.945 
14:15	63.9	63.9	63.9	27	29.3	2	7	270	0.00	29.937 
14:20	64.0	64.0	64.0	28	30.2	2	4	270	0.00	29.937 
14:25	64.3	64.3	64.3	27	29.6	2	7	270	0.00	29.937 
14:30	64.2	64.2	64.2	30	32.1	2	7	270	0.00	29.931 
14:35	64.0	64.0	64.0	29	31.1	2	4	315	0.00	29.931 
14:40	64.5	64.5	64.5	31	33.2	2	5	292	0.00	29.931 
14:45	65.2	65.2	65.2	28	31.3	2	5	270	0.00	29.921 
14:50	64.7	64.7	64.7	28	30.8	3	7	270	0.00	29.921 
14:55	64.8	64.8	64.8	30	32.6	2	6	248	0.00	29.921 
15:00	65.0	65.0	65.0	27	30.2	2	5	248	0.00	29.914 
15:05	65.5	65.5	65.5	27	30.6	3	6	270	0.00	29.914 
15:10	65.2	65.2	65.2	28	31.3	2	5	270	0.00	29.914 
15:15	65.0	65.0	65.0	28	31.1	3	10	270	0.00	29.906 
15:20	65.2	65.2	65.2	29	32.1	2	6	270	0.00	29.906 
15:25	65.3	65.3	65.3	28	31.4	2	5	270	0.00	29.906 
15:30	65.0	65.0	65.0	27	30.2	3	12	248	0.00	29.898 
15:35	65.0	65.0	65.0	28	31.1	2	5	270	0.00	29.898 
15:40	65.5	65.5	65.5	28	31.5	2	6	270	0.00	29.898 
15:45	65.6	65.6	65.6	28	31.6	2	5	270	0.00	29.897 
15:50	65.5	65.5	65.5	28	31.5	3	5	270	0.00	29.897 
15:55	65.5	65.5	65.5	28	31.5	3	7	270	0.00	29.897 
16:00	65.3	65.3	65.3	28	31.4	3	6	270	0.00	29.895 
16:05	65.2	65.2	65.2	27	30.4	3	7	270	0.00	29.895 
16:10	65.3	65.3	65.3	28	31.4	3	7	270	0.00	29.895 
16:15	65.3	65.3	65.3	28	31.4	3	6	270	0.00	29.891 
16:20	65.5	65.5	65.5	27	30.6	2	5	248	0.00	29.891 
16:25	65.0	65.0	65.0	27	30.2	4	14	270	0.00	29.891 
16:30	64.5	64.5	64.5	28	30.7	2	5	248	0.00	29.889 
16:35	64.2	64.2	64.2	30	32.1	2	4	292	0.00	29.889 
16:40	64.5	64.5	64.5	29	31.5	2	6	270	0.00	29.889 
16:45	64.7	64.7	64.7	28	30.8	3	10	270	0.00	29.886 
16:50	64.7	64.7	64.7	28	30.8	3	7	270	0.00	29.886 
16:55	64.8	64.8	64.8	28	30.9	2	5	270	0.00	29.886 
17:00	65.0	65.0	65.0	27	30.2	3	11	248	0.00	29.884 
17:05	64.8	64.8	64.8	27	30.0	2	5	248	0.00	29.884 
17:10	64.7	64.7	64.7	29	31.7	1	3	270	0.00	29.884 
17:15	64.8	64.8	64.8	28	30.9	2	4	270	0.00	29.876 
17:20	65.0	65.0	65.0	28	31.1	2	6	270	0.00	29.876 
17:25	64.3	64.3	64.3	30	32.2	2	5	248	0.00	29.876 
17:30	63.9	63.9	63.9	31	32.7	2	7	248	0.00	29.875 
17:35	63.9	63.9	63.9	30	31.9	2	6	270	0.00	29.875 
17:40	63.7	63.7	63.7	31	32.5	4	10	248	0.00	29.875 
17:45	63.4	63.4	63.4	31	32.2	2	4	248	0.00	29.868 
17:50	63.4	63.4	63.4	31	32.2	1	4	248	0.00	29.868 
17:55	63.5	63.5	63.5	29	30.7	3	5	270	0.00	29.868 
18:00	63.5	63.5	63.5	29	30.7	3	6	270	0.00	29.868 
18:05	63.4	63.4	63.4	31	32.2	3	7	270	0.00	29.868 
18:10	63.2	63.2	63.2	31	32.1	3	10	270	0.00	29.868 
18:15	63.1	63.1	63.1	31	32.0	2	5	270	0.00	29.871 
18:20	63.1	63.1	63.1	32	32.8	3	5	270	0.00	29.871 
18:25	63.1	63.1	63.1	32	32.8	3	6	270	0.00	29.871 
18:30	62.7	62.7	62.7	33	33.2	3	5	248	0.00	29.873 
18:35	62.3	62.3	62.3	33	32.8	3	5	270	0.00	29.873 
18:40	62.1	62.1	62.1	32	31.9	2	5	270	0.00	29.873 
18:45	62.0	62.0	62.0	33	32.6	1	4	270	0.00	29.873 
18:50	61.8	61.8	61.8	33	32.4	2	6	270	0.00	29.873 
18:55	61.6	61.6	61.6	33	32.2	2	4	248	0.00	29.873 
19:00	61.3	61.3	61.3	33	32.0	2	7	270	0.00	29.873 
19:05	61.2	61.2	61.2	35	33.3	2	5	270	0.00	29.873 
19:10	61.0	61.0	61.0	35	33.2	2	7	248	0.00	29.873 
19:15	60.7	60.7	60.7	36	33.6	2	6	248	0.00	29.877 
19:20	60.5	60.5	60.5	36	33.4	2	6	248	0.00	29.877 
19:25	60.2	60.2	60.2	37	33.8	1	3	248	0.00	29.877 
19:30	60.1	60.1	60.1	36	33.1	2	7	248	0.00	29.878 
19:35	59.8	59.8	59.8	37	33.5	1	4	248	0.00	29.878 
19:40	59.5	59.5	59.5	37	33.2	1	5	248	0.00	29.878 
19:45	59.2	59.2	59.2	36	32.3	1	4	248	0.00	29.884 
19:50	59.0	59.0	59.0	36	32.1	2	5	248	0.00	29.884 
19:55	58.9	58.9	58.9	37	32.7	1	4	248	0.00	29.884 
20:00	58.6	58.6	58.6	37	32.4	1	4	248	0.00	29.883 
20:05	58.3	58.3	58.3	37	32.1	1	4	248	0.00	29.883 
20:10	58.1	58.1	58.1	38	32.6	2	5	248	0.00	29.883 
20:15	58.0	58.0	58.0	39	33.2	1	3	248	0.00	29.884 
20:20	57.6	57.6	57.6	39	32.8	1	4	248	0.00	29.884 
20:25	57.5	57.5	57.5	40	33.4	1	2	248	0.00	29.884 
20:30	57.2	57.2	57.2	41	33.7	1	4	248	0.00	29.885 
20:35	56.9	56.9	56.9	41	33.4	1	4	248	0.00	29.885 
20:40	56.5	56.5	56.5	42	33.7	0	3	248	0.00	29.885 
20:45	56.3	56.3	56.3	43	34.1	1	6	248	0.00	29.890 
20:50	56.0	56.0	56.0	43	33.8	1	2	248	0.00	29.890 
20:55	55.9	55.9	55.9	44	34.3	1	5	248	0.00	29.890 
21:00	55.7	55.7	55.7	45	34.7	1	5	248	0.00	29.896 
21:05	55.6	55.6	55.6	45	34.6	1	4	248	0.00	29.896 
21:10	55.4	55.4	55.4	45	34.4	1	4	248	0.00	29.896 
21:15	55.3	55.3	55.3	46	34.9	0	2	225	0.00	29.894 
21:20	55.0	55.0	55.0	46	34.6	0	2	225	0.00	29.894 
21:25	54.8	54.8	54.8	47	35.0	1	4	270	0.00	29.894 
21:30	54.5	54.5	54.5	47	34.7	1	3	248	0.00	29.895 
21:35	54.4	54.4	54.4	48	35.1	1	4	248	0.00	29.895 
21:40	54.2	54.2	54.2	48	34.9	1	4	248	0.00	29.895 
21:45	54.2	54.2	54.2	49	35.5	0	2	248	0.00	29.897 
21:50	54.1	54.1	54.1	49	35.4	0	2	248	0.00	29.897 
21:55	53.8	53.8	53.8	50	35.6	0	2	248	0.00	29.897 
22:00	53.5	53.5	53.5	50	35.3	0	4	248	0.00	29.900 
22:05	53.3	53.3	53.3	51	35.6	0	2	248	0.00	29.900 
22:10	53.3	53.3	53.3	51	35.6	1	5	248	0.00	29.900 
22:15	53.2	53.2	53.2	51	35.5	0	3	225	0.00	29.893 
22:20	53.2	53.2	53.2	52	36.0	1	4	248	0.00	29.893 
22:25	53.2	53.2	53.2	52	36.0	1	3	248	0.00	29.893 
22:30	53.1	53.1	53.1	53	36.4	1	3	248	0.00	29.895 
22:35	52.9	52.9	52.9	53	36.2	1	4	248	0.00	29.895 
22:40	52.6	52.6	52.6	54	36.4	0	1	248	0.00	29.895 
22:45	52.3	52.3	52.3	54	36.2	0	1	248	0.00	29.894 
22:50	52.0	52.0	52.0	55	36.3	0	1	248	0.00	29.894 
22:55	51.6	51.6	51.6	56	36.4	0	1	248	0.00	29.894 
23:00	51.4	51.4	51.4	57	36.7	0	2	248	0.00	29.895 
23:05	51.3	51.3	51.3	57	36.6	0	3	248	0.00	29.895 
23:10	51.1	51.1	51.1	58	36.8	0	3	248	0.00	29.895 
23:15	51.0	51.0	51.0	58	36.7	0	1	248	0.00	29.897 
23:20	50.8	50.8	50.8	59	37.0	0	2	248	0.00	29.897 
23:25	50.8	50.8	50.8	59	37.0	1	3	248	0.00	29.897 
23:30	50.7	50.7	50.7	59	36.9	0	2	248	0.00	29.894 
23:35	50.5	50.5	50.5	60	37.1	0	1	248	0.00	29.894 
23:40	50.4	50.4	50.4	60	37.0	0	2	248	0.00	29.894 
23:45	50.2	50.2	50.2	61	37.3	0	2	248	0.00	29.896 
23:50	50.1	50.1	50.1	61	37.2	0	2	248	0.00	29.896 
23:55	49.9	49.9	49.9	62	37.4	0	2	248	0.00	29.896 

CoCoRaHS
IN-AL-39
A2 Web Hosting
Creative Commons License
GoDaddy
search engine by freefind advanced

loaded 2018-11-13 01:36:01 • last modified 2010-11-18 10:43:29
Privacy PolicyDisclaimer
• wx.awcolley.com is powered by PmWiki v.2002016 •
• all content (unless otherwise noted) © 2018 A W Colley